ADDS METAR Data INFO
IDs: Format: Raw Decoded Include TAF

Data at: 1714 UTC 23 Oct 2017

KMGM 231653Z 27014KT 10SM SCT032 22/12 A2996 RMK AO2 SLP142 T02170122
KMGM 231636Z 27013G19KT 10SM SCT032 21/12 A2996 RMK AO2 T02060122
KMGM 231605Z 25014KT 10SM BKN029 21/13 A2997 RMK AO2 T02110128
KMGM 231553Z 28014G22KT 10SM SCT029 21/13 A2997 RMK AO2 SLP146 T02110128
KMGM 231508Z 28017G22KT 10SM SCT016 SCT024 BKN031 20/14 A2997 RMK AO2 T02000139
KMGM 231453Z 28010KT 10SM BKN016 OVC033 20/15 A2996 RMK AO2 SLP145 60000 T02000150 51019
KMGM 231403Z 28010KT 10SM SCT013 BKN018 OVC030 19/16 A2997 RMK AO2 T01890156
KMGM 231353Z 28012KT 10SM FEW008 BKN014 OVC030 19/15 A2996 RMK AO2 RAB30E39 SLP144 P0000 T01890150
KMGM 231341Z 29012KT 10SM FEW009 BKN012 OVC027 19/16 A2996 RMK AO2 RAB30E39 P0000 T01890156
KMGM 231334Z 29014G20KT 10SM -RA BKN009 BKN019 OVC027 19/16 A2996 RMK AO2 RAB30 CIG 007V012 P0000 T01890156
KMGM 231253Z 29013G21KT 10SM SCT010 OVC014 19/16 A2994 RMK AO2 SLP136 T01890161
KMGM 231236Z 29016G20KT 10SM SCT010 BKN014 OVC024 19/17 A2993 RMK AO2 T01940167
KMGM 231201Z 28009KT 10SM FEW005 BKN016 OVC023 20/17 A2991 RMK AO2 T02000172 $
KMGM 231153Z 27010KT 10SM SCT006 BKN009 OVC016 21/17 A2991 RMK AO2 RAB10E19 SLP124 P0000 60003 70201 T02060172 10228 20206 53005 $
KMGM 231117Z 25005KT 6SM -RA BKN008 OVC016 22/19 A2990 RMK AO2 RAB10 CIG 005V012 P0000 T02170189 $
KMGM 231100Z 26007KT 10SM FEW005 OVC016 22/19 A2990 RMK AO2 T02170189 $
KMGM 231053Z AUTO 26009KT 10SM SCT005 OVC014 22/19 A2990 RMK AO2 RAE30 SLP120 P0001 T02170189 $
KMGM 231007Z AUTO 20004KT 4SM -RA BR BKN007 OVC014 22/19 A2989 RMK AO2 CIG 005V011 P0000 T02170194 $
KMGM 231003Z AUTO 18004KT 4SM -RA BR BKN012 OVC018 22/19 A2989 RMK AO2 P0000 T02170194 $
KMGM 230953Z AUTO 19003KT 4SM -RA BR FEW006 SCT009 OVC015 22/19 A2989 RMK AO2 RAB10 SLP120 P0002 T02170194 $
KMGM 230950Z AUTO 19004KT 4SM -RA BR FEW006 OVC015 22/19 A2989 RMK AO2 RAB10 P0002 $
KMGM 230946Z AUTO 19004KT 2 1/2SM -RA OVC015 22/19 A2989 RMK AO2 VIS 1 1/2V5 RAB10 P0001 T02220194 $
KMGM 230911Z AUTO 19005KT 10SM -RA SCT016 BKN021 OVC055 22/19 A2990 RMK AO2 RAB10 P0000 T02220194 $
KMGM 230853Z AUTO 17006KT 10SM FEW032 SCT048 BKN060 22/19 A2989 RMK AO2 SLP119 60000 T02220189 58018 $
KMGM 230753Z AUTO 16010KT 10SM SCT013 BKN065 OVC080 23/19 A2992 RMK AO2 SLP128 T02280194 $
KMGM 230653Z AUTO 14007KT 10SM BKN012 BKN018 OVC041 22/19 A2995 RMK AO2 RAE31 SLP138 P0000 T02220194 $
KMGM 230644Z AUTO 16010KT 10SM BKN013 BKN027 OVC044 23/19 A2995 RMK AO2 RAE31 P0000 T02280194 $
KMGM 230617Z AUTO 14012G21KT 10SM -RA FEW009 SCT055 OVC080 23/19 A2996 RMK AO2 P0000 T02280194 $
KMGM 230553Z AUTO 13015G25KT 9SM -RA FEW012 SCT070 OVC090 22/19 A2995 RMK AO2 SLP137 P0006 60198 T02220194 10250 20222 402830167 56035 $
KMGM 230453Z AUTO 13013KT 10SM -RA FEW090 SCT120 23/19 A2998 RMK AO2 SLP148 P0008 T02280194 $
KMGM 230353Z 10009KT 4SM +RA FEW028 BKN075 OVC110 23/20 A3000 RMK AO2 PRESFR SLP157 P0038 T02280200 $
KMGM 230309Z 14007KT 4SM +RA FEW013 BKN039 OVC060 23/20 A3004 RMK AO2 P0017 T02280200 $
KMGM 230253Z 16003KT 2SM +RA BR BKN019 BKN025 OVC032 22/20 A3005 RMK AO2 SLP172 P0101 60146 T02220200 53011 $
KMGM 230230Z 36007KT 1SM +RA BR FEW008 BKN016 OVC034 22/21 A3003 RMK AO2 P0053 T02220206 $
KMGM 230219Z 26010KT 2SM +RA FEW006 BKN046 OVC095 23/20 A3003 RMK AO2 P0015 T02280200 $
KMGM 230153Z 36003KT 3SM RA OVC048 23/20 A3003 RMK AO2 SLP164 P0036 T02280200 $
KMGM 230124Z 14003KT 2 1/2SM +RA OVC045 23/20 A3004 RMK AO2 VIS 1 3/4V5 P0019 T02280200 $
KMGM 230053Z 00000KT 7SM -RA BKN050 OVC070 23/20 A3003 RMK AO2 RAB2357 SLP168 P0009 T02330200 $
KMGM 222353Z 04004KT 10SM BKN070 BKN120 25/20 A3002 RMK AO2 RAB02E36 SLP162 P0000 60000 T02500200 10278 20244 55007 $
KMGM 222253Z 03004KT 10SM FEW090 SCT110 26/19 A3001 RMK AO2 SLP162 T02560194
KMGM 222153Z 08004KT 10SM BKN100 26/19 A3003 RMK AO2 SLP165 T02610194
KMGM 222053Z 10006KT 10SM SCT080 27/19 A3004 RMK AO2 SLP169 T02670189 56023
KMGM 221953Z 11009KT 10SM FEW070 27/19 A3006 RMK AO2 SLP176 T02720189
KMGM 221853Z 11008KT 10SM FEW030 SCT070 BKN100 27/18 A3008 RMK AO2 SLP182 T02720183
KMGM 221753Z 11013KT 10SM FEW029 27/18 A3011 RMK AO2 SLP192 T02720183 10283 20172 58017
KMGM 221653Z 11007KT 10SM BKN060 27/18 A3013 RMK AO2 SLP199 T02670183
KMGM 221553Z 09011G16KT 10SM FEW017 OVC065 26/19 A3015 RMK AO2 SLP205 T02610189
KMGM 221453Z 12010KT 10SM OVC055 23/18 A3016 RMK AO2 SLP209 T02330178 58002
KMGM 221353Z 09009KT 10SM FEW070 21/17 A3016 RMK AO2 SLP211 T02110167
KMGM 221253Z 10008KT 10SM FEW065 19/16 A3017 RMK AO2 SLP214 T01890161
KMGM 221153Z 09006KT 10SM CLR 17/14 A3016 RMK AO2 SLP212 T01720144 10194 20167 53005
KMGM 221053Z AUTO 10008KT 10SM CLR 18/14 A3016 RMK AO2 SLP210 T01780144
KMGM 220953Z AUTO 09005KT 10SM CLR 17/14 A3015 RMK AO2 SLP208 T01670139
KMGM 220853Z AUTO 10006KT 10SM CLR 17/14 A3015 RMK AO2 SLP206 T01720144 56009
KMGM 220753Z AUTO 09007KT 10SM CLR 18/14 A3015 RMK AO2 SLP206 T01780144
KMGM 220653Z AUTO 09006KT 10SM CLR 18/14 A3017 RMK AO2 SLP213 T01830144
KMGM 220553Z AUTO 09007KT 10SM CLR 19/15 A3018 RMK AO2 SLP215 T01940150 10233 20194 402830139 58008